Time;durP1;ratioP1;P1;durP2;ratioP2;P2;SDS_P1;SDS_P2;PMS_P1;PMS_P2;Temp;Humidity;BMP_temperature;BMP_pressure;BME280_temperature;BME280_humidity;BME280_pressure;Samples;Min_cycle;Max_cycle;Signal;HPM_P1;HPM_P2
2022/10/12 00:01:39;;;;;;;;;;;9.50;99.90;;;;;;8422976;28;19920;-80
2022/10/12 00:05:40;;;;;;;;;;;9.40;99.90;;;;;;8426124;28;19955;-80
2022/10/12 00:09:42;;;;;;;;;;;9.40;99.90;;;;;;8428266;28;19932;-80
2022/10/12 00:13:43;;;;;;;;;;;9.30;99.90;;;;;;8445590;28;19923;-80
2022/10/12 00:17:45;;;;;;;;;;;9.30;99.90;;;;;;8428979;27;19928;-80
2022/10/12 00:21:47;;;;;;;;;;;9.30;99.90;;;;;;8414611;28;19924;-80
2022/10/12 00:25:48;;;;;;;;;;;9.30;99.90;;;;;;8404801;28;19931;-80
2022/10/12 00:29:50;;;;;;;;;;;9.30;99.90;;;;;;8416629;28;19920;-80
2022/10/12 00:33:51;;;;;;;;;;;9.20;99.90;;;;;;8424757;28;19926;-79
2022/10/12 00:37:53;;;;;;;;;;;9.20;99.90;;;;;;8426537;28;19926;-80
2022/10/12 00:41:55;;;;;;;;;;;9.20;99.90;;;;;;8424509;28;20301;-80
2022/10/12 00:45:58;;;;;;;;;;;9.10;99.90;;;;;;8440680;27;20006;-81
2022/10/12 00:50:19;;;;;;;;;;;9.10;99.90;;;;;;8426308;28;19920;-79
2022/10/12 00:54:23;;;;;;;;;;;9.00;99.90;;;;;;8431962;28;19919;-81
2022/10/12 01:03:29;;;;;;;;;;;8.90;99.90;;;;;;8420519;28;19970;-80
2022/10/12 01:07:31;;;;;;;;;;;8.90;99.90;;;;;;8436405;28;20400;-80
2022/10/12 01:11:33;;;;;;;;;;;8.80;99.90;;;;;;8414681;28;19973;-80
2022/10/12 01:15:38;;;;;;;;;;;8.80;99.90;;;;;;8431132;28;20314;-80
2022/10/12 01:19:50;;;;;;;;;;;8.80;99.90;;;;;;8404910;28;19934;-80
2022/10/12 01:24:20;;;;;;;;;;;8.80;99.90;;;;;;8429310;28;20310;-80
2022/10/12 01:28:35;;;;;;;;;;;8.70;99.90;;;;;;8415246;28;21284;-80
2022/10/12 01:32:51;;;;;;;;;;;8.70;99.90;;;;;;8408723;28;19943;-80
2022/10/12 01:37:07;;;;;;;;;;;8.70;99.90;;;;;;8424676;28;19926;-80
2022/10/12 01:41:12;;;;;;;;;;;8.70;99.90;;;;;;8428644;28;19930;-80
2022/10/12 01:45:15;;;;;;;;;;;8.60;99.90;;;;;;8419419;28;19919;-80
2022/10/12 01:49:19;;;;;;;;;;;8.60;99.90;;;;;;8430961;28;20318;-79
2022/10/12 01:53:50;;;;;;;;;;;8.60;99.90;;;;;;8408482;28;20411;-81
2022/10/12 01:57:57;;;;;;;;;;;8.50;99.90;;;;;;8407999;28;19927;-80
2022/10/12 02:02:02;;;;;;;;;;;8.50;99.90;;;;;;8440647;28;19920;-80
2022/10/12 02:16:19;;;;;;;;;;;8.40;99.90;;;;;;8427462;27;19927;-80
2022/10/12 02:20:22;;;;;;;;;;;8.40;99.90;;;;;;8421530;28;20292;-80
2022/10/12 02:24:23;;;;;;;;;;;8.50;99.90;;;;;;8434120;28;19927;-80
2022/10/12 02:28:26;;;;;;;;;;;8.50;99.90;;;;;;8443395;27;20395;-80
2022/10/12 02:32:34;;;;;;;;;;;8.50;99.90;;;;;;8419014;28;20026;-80
2022/10/12 02:36:38;;;;;;;;;;;8.50;99.90;;;;;;8421183;28;19924;-80
2022/10/12 02:40:43;;;;;;;;;;;8.50;99.90;;;;;;8437866;28;20286;-80
2022/10/12 02:44:45;;;;;;;;;;;8.50;99.90;;;;;;8433555;28;19927;-80
2022/10/12 02:48:47;;;;;;;;;;;8.50;99.90;;;;;;8429836;28;20298;-80
2022/10/12 02:52:50;;;;;;;;;;;8.50;99.90;;;;;;8415990;28;20406;-80
2022/10/12 02:56:51;;;;;;;;;;;8.50;99.90;;;;;;8434839;28;19923;-80
2022/10/12 03:00:53;;;;;;;;;;;8.50;99.90;;;;;;8423652;28;20355;-80
2022/10/12 03:04:55;;;;;;;;;;;8.40;99.90;;;;;;8436208;28;19924;-80
2022/10/12 03:08:56;;;;;;;;;;;8.40;99.90;;;;;;8424944;28;19926;-80
2022/10/12 03:12:58;;;;;;;;;;;8.40;99.90;;;;;;8444673;28;19920;-80
2022/10/12 03:17:00;;;;;;;;;;;8.40;99.90;;;;;;8431969;28;19926;-80
2022/10/12 03:21:02;;;;;;;;;;;8.30;99.90;;;;;;8407055;28;19973;-79
2022/10/12 03:25:03;;;;;;;;;;;8.30;99.90;;;;;;8401309;28;20347;-80
2022/10/12 03:29:05;;;;;;;;;;;8.30;99.90;;;;;;8445154;28;20264;-80
2022/10/12 03:33:07;;;;;;;;;;;8.30;99.90;;;;;;8439132;28;20309;-80
2022/10/12 03:37:08;;;;;;;;;;;8.30;99.90;;;;;;8423670;28;20303;-79
2022/10/12 03:41:10;;;;;;;;;;;8.30;99.90;;;;;;8430705;28;19919;-80
2022/10/12 03:45:11;;;;;;;;;;;8.30;99.90;;;;;;8419418;28;20268;-79
2022/10/12 03:49:13;;;;;;;;;;;8.30;99.90;;;;;;8422223;28;19923;-80
2022/10/12 03:53:15;;;;;;;;;;;8.30;99.90;;;;;;8435069;28;19929;-80
2022/10/12 03:57:17;;;;;;;;;;;8.30;99.90;;;;;;8407840;28;19920;-80
2022/10/12 04:01:18;;;;;;;;;;;8.20;99.90;;;;;;8416674;28;20282;-80
2022/10/12 04:05:20;;;;;;;;;;;8.20;99.90;;;;;;8431613;28;20344;-80
2022/10/12 04:09:21;;;;;;;;;;;8.20;99.90;;;;;;8438993;28;19920;-80
2022/10/12 04:13:23;;;;;;;;;;;8.10;99.90;;;;;;8434688;28;20346;-79
2022/10/12 04:17:25;;;;;;;;;;;8.10;99.90;;;;;;8428879;28;19982;-80
2022/10/12 04:21:29;;;;;;;;;;;8.10;99.90;;;;;;8422063;28;20240;-80
2022/10/12 04:25:31;;;;;;;;;;;8.00;99.90;;;;;;8422088;28;19953;-79
2022/10/12 04:29:32;;;;;;;;;;;8.00;99.90;;;;;;8416067;28;19923;-80
2022/10/12 04:33:34;;;;;;;;;;;8.00;99.90;;;;;;8419758;28;20312;-80
2022/10/12 04:37:35;;;;;;;;;;;8.00;99.90;;;;;;8423770;28;21257;-80
2022/10/12 04:41:38;;;;;;;;;;;7.90;99.90;;;;;;8401066;28;20303;-80
2022/10/12 04:45:40;;;;;;;;;;;7.90;99.90;;;;;;8418848;28;20027;-80
2022/10/12 04:49:41;;;;;;;;;;;7.90;99.90;;;;;;8423519;28;19926;-80
2022/10/12 05:09:18;;;;;;;;;;;7.70;99.90;;;;;;8425856;28;19946;-80
2022/10/12 05:13:19;;;;;;;;;;;7.70;99.90;;;;;;8414028;28;19938;-80
2022/10/12 05:17:21;;;;;;;;;;;7.60;99.90;;;;;;8425127;28;19927;-80
2022/10/12 05:21:23;;;;;;;;;;;7.60;99.90;;;;;;8434174;28;20360;-80
2022/10/12 05:25:24;;;;;;;;;;;7.50;99.90;;;;;;8402153;28;19930;-80
2022/10/12 05:29:26;;;;;;;;;;;7.50;99.90;;;;;;8437894;28;20086;-79
2022/10/12 05:33:27;;;;;;;;;;;7.50;99.90;;;;;;8428829;28;19964;-80
2022/10/12 05:37:29;;;;;;;;;;;7.50;99.90;;;;;;8438764;28;19919;-80
2022/10/12 05:41:31;;;;;;;;;;;7.40;99.90;;;;;;8433163;28;19928;-80
2022/10/12 05:45:32;;;;;;;;;;;7.40;99.90;;;;;;8429256;28;20008;-80
2022/10/12 05:49:34;;;;;;;;;;;7.40;99.90;;;;;;8440849;28;20644;-79
2022/10/12 05:53:36;;;;;;;;;;;7.40;99.90;;;;;;8429239;28;19926;-79
2022/10/12 05:57:38;;;;;;;;;;;7.40;99.90;;;;;;8435104;28;19920;-80
2022/10/12 06:01:39;;;;;;;;;;;7.30;99.90;;;;;;8447246;28;19981;-80
2022/10/12 06:05:41;;;;;;;;;;;7.30;99.90;;;;;;8414092;28;19919;-80
2022/10/12 06:09:43;;;;;;;;;;;7.30;99.90;;;;;;8409403;28;19923;-80
2022/10/12 06:13:45;;;;;;;;;;;7.30;99.90;;;;;;8441645;28;20014;-79
2022/10/12 06:17:46;;;;;;;;;;;7.30;99.90;;;;;;8426832;28;19924;-79
2022/10/12 06:21:48;;;;;;;;;;;7.30;99.90;;;;;;8442698;28;19931;-80
2022/10/12 06:25:51;;;;;;;;;;;7.30;99.90;;;;;;8422146;28;19927;-80
2022/10/12 06:29:52;;;;;;;;;;;7.30;99.90;;;;;;8408576;28;19920;-80
2022/10/12 06:33:54;;;;;;;;;;;7.30;99.90;;;;;;8449140;28;20332;-80
2022/10/12 06:37:55;;;;;;;;;;;7.40;99.90;;;;;;8436088;28;19923;-79
2022/10/12 06:41:57;;;;;;;;;;;7.40;99.90;;;;;;8435828;28;20321;-80
2022/10/12 06:46:00;;;;;;;;;;;7.40;99.90;;;;;;8432332;28;20278;-80
2022/10/12 06:50:02;;;;;;;;;;;7.40;99.90;;;;;;8418473;28;20029;-80
2022/10/12 06:54:04;;;;;;;;;;;7.40;99.90;;;;;;8437782;28;20014;-80
2022/10/12 06:58:05;;;;;;;;;;;7.50;99.90;;;;;;8427634;28;20348;-80
2022/10/12 07:02:10;;;;;;;;;;;7.50;99.90;;;;;;8425609;28;19924;-80
2022/10/12 07:06:12;;;;;;;;;;;7.50;99.90;;;;;;8414525;28;19927;-79
2022/10/12 07:10:14;;;;;;;;;;;7.50;99.90;;;;;;8429702;28;19919;-80
2022/10/12 07:14:15;;;;;;;;;;;7.60;99.90;;;;;;8424785;28;20381;-79
2022/10/12 07:18:17;;;;;;;;;;;7.60;99.90;;;;;;8415226;28;19919;-80
2022/10/12 07:22:19;;;;;;;;;;;7.60;99.90;;;;;;8421354;28;19923;-80
2022/10/12 07:26:20;;;;;;;;;;;7.70;99.90;;;;;;8436154;28;20251;-80
2022/10/12 07:30:22;;;;;;;;;;;7.70;99.90;;;;;;8428274;28;19930;-80
2022/10/12 07:34:24;;;;;;;;;;;7.80;99.90;;;;;;8411671;28;20005;-80
2022/10/12 07:38:26;;;;;;;;;;;8.00;99.90;;;;;;8416547;28;20408;-80
2022/10/12 07:42:28;;;;;;;;;;;8.20;99.90;;;;;;8422504;28;20367;-80
2022/10/12 07:46:29;;;;;;;;;;;8.40;99.90;;;;;;8429682;28;19938;-80
2022/10/12 07:50:31;;;;;;;;;;;8.60;99.90;;;;;;8420588;28;20353;-80
2022/10/12 07:54:32;;;;;;;;;;;8.80;99.90;;;;;;8425067;28;19958;-80
2022/10/12 07:58:34;;;;;;;;;;;9.00;99.90;;;;;;8407633;28;19920;-80
2022/10/12 08:02:36;;;;;;;;;;;9.10;99.90;;;;;;8416794;28;19924;-79
2022/10/12 08:06:40;;;;;;;;;;;9.20;99.90;;;;;;8417629;28;19929;-79
2022/10/12 08:10:42;;;;;;;;;;;9.20;99.90;;;;;;8415227;28;19953;-79
2022/10/12 08:14:43;;;;;;;;;;;9.20;99.90;;;;;;8453022;28;19963;-79
2022/10/12 08:18:45;;;;;;;;;;;9.30;99.90;;;;;;8415970;28;20342;-80
2022/10/12 08:22:47;;;;;;;;;;;9.30;99.90;;;;;;8445092;28;19919;-80
2022/10/12 08:26:48;;;;;;;;;;;9.40;99.90;;;;;;8443582;28;19924;-80
2022/10/12 08:30:50;;;;;;;;;;;9.50;99.90;;;;;;8438394;28;19920;-79
2022/10/12 08:34:52;;;;;;;;;;;9.60;99.90;;;;;;8432743;28;20014;-80
2022/10/12 08:38:54;;;;;;;;;;;9.80;99.90;;;;;;8429073;28;20314;-79
2022/10/12 08:42:59;;;;;;;;;;;10.00;99.90;;;;;;8431474;28;20387;-80
2022/10/12 08:47:05;;;;;;;;;;;10.20;99.90;;;;;;8429728;28;19926;-80
2022/10/12 08:51:09;;;;;;;;;;;10.40;99.90;;;;;;8437115;28;20255;-80
2022/10/12 08:55:18;;;;;;;;;;;10.50;99.90;;;;;;8428171;28;20527;-80
2022/10/12 08:59:20;;;;;;;;;;;10.80;99.90;;;;;;8432044;28;19920;-79
2022/10/12 09:03:30;;;;;;;;;;;11.00;99.90;;;;;;8419390;28;19934;-80
2022/10/12 09:07:54;;;;;;;;;;;11.20;99.90;;;;;;8428982;28;20015;-80
2022/10/12 09:12:01;;;;;;;;;;;11.40;99.90;;;;;;8426423;28;21127;-80
2022/10/12 09:16:12;;;;;;;;;;;11.60;99.90;;;;;;8427075;28;20264;-80
2022/10/12 09:20:14;;;;;;;;;;;11.70;99.90;;;;;;8428505;28;19930;-80
2022/10/12 09:24:17;;;;;;;;;;;12.00;99.90;;;;;;8438714;28;19943;-80
2022/10/12 09:28:33;;;;;;;;;;;12.30;99.90;;;;;;8439776;28;19928;-80
2022/10/12 09:32:35;;;;;;;;;;;12.60;99.90;;;;;;8427049;28;20374;-79
2022/10/12 09:36:38;;;;;;;;;;;12.70;99.90;;;;;;8419544;28;19928;-79
2022/10/12 09:40:40;;;;;;;;;;;12.90;99.90;;;;;;8432236;28;19935;-79
2022/10/12 09:44:44;;;;;;;;;;;13.10;99.90;;;;;;8424587;28;20287;-80
2022/10/12 09:48:56;;;;;;;;;;;13.10;99.90;;;;;;8411130;28;19923;-79
2022/10/12 09:52:58;;;;;;;;;;;13.00;99.90;;;;;;8426129;28;19930;-80
2022/10/12 09:57:01;;;;;;;;;;;12.90;99.90;;;;;;8430492;28;19944;-80
2022/10/12 10:01:15;;;;;;;;;;;12.90;99.90;;;;;;8416290;28;19951;-80
2022/10/12 10:05:30;;;;;;;;;;;13.00;99.90;;;;;;8425813;28;19919;-79
2022/10/12 10:09:33;;;;;;;;;;;13.20;99.90;;;;;;8403365;28;20278;-80
2022/10/12 10:13:36;;;;;;;;;;;13.60;99.90;;;;;;8421141;28;19923;-80
2022/10/12 10:17:38;;;;;;;;;;;13.80;99.90;;;;;;8414668;28;19920;-80
2022/10/12 10:27:09;;;;;;;;;;;14.40;99.90;;;;;;8403515;28;20029;-80
2022/10/12 10:31:11;;;;;;;;;;;14.80;99.90;;;;;;8415536;28;19924;-80
2022/10/12 10:35:13;;;;;;;;;;;15.30;99.90;;;;;;8442249;28;19920;-79
2022/10/12 10:39:16;;;;;;;;;;;15.80;99.90;;;;;;8429187;28;20274;-79
2022/10/12 10:43:28;;;;;;;;;;;16.20;99.90;;;;;;8438430;28;19963;-80
2022/10/12 10:47:30;;;;;;;;;;;16.40;99.90;;;;;;8412589;28;19920;-80
2022/10/12 10:51:43;;;;;;;;;;;16.70;99.90;;;;;;8426107;28;20298;-80
2022/10/12 10:55:45;;;;;;;;;;;17.10;99.90;;;;;;8438093;28;19919;-79
2022/10/12 10:59:48;;;;;;;;;;;17.50;99.90;;;;;;8442855;28;20229;-81
2022/10/12 11:04:13;;;;;;;;;;;17.80;99.90;;;;;;8421130;28;19926;-79
2022/10/12 11:08:24;;;;;;;;;;;17.90;99.90;;;;;;8423505;28;19920;-79
2022/10/12 11:12:28;;;;;;;;;;;18.10;99.90;;;;;;8424451;28;19920;-79
2022/10/12 11:16:40;;;;;;;;;;;18.30;99.90;;;;;;8431466;28;19921;-79
2022/10/12 11:20:45;;;;;;;;;;;18.30;99.90;;;;;;8439069;28;20341;-81
2022/10/12 11:24:57;;;;;;;;;;;18.20;99.90;;;;;;8418317;28;19930;-80
2022/10/12 11:28:59;;;;;;;;;;;18.00;99.90;;;;;;8447990;28;20359;-80
2022/10/12 11:33:04;;;;;;;;;;;18.00;99.90;;;;;;8439401;28;20248;-80
2022/10/12 11:37:09;;;;;;;;;;;18.20;99.90;;;;;;8425894;28;20379;-79
2022/10/12 11:41:33;;;;;;;;;;;18.40;99.90;;;;;;8436299;28;20267;-80
2022/10/12 11:45:39;;;;;;;;;;;18.50;99.90;;;;;;8408825;28;19949;-80
2022/10/12 11:49:48;;;;;;;;;;;18.60;99.90;;;;;;8432918;28;20253;-80
2022/10/12 11:53:50;;;;;;;;;;;18.20;99.90;;;;;;8426127;28;19920;-80
2022/10/12 11:57:53;;;;;;;;;;;17.80;99.90;;;;;;8399896;28;19921;-79
2022/10/12 12:02:09;;;;;;;;;;;17.30;99.90;;;;;;8401724;28;19919;-80
2022/10/12 12:06:29;;;;;;;;;;;17.00;99.90;;;;;;8403292;28;20334;-80
2022/10/12 12:10:34;;;;;;;;;;;16.70;99.90;;;;;;8400289;28;19923;-80
2022/10/12 12:14:35;;;;;;;;;;;16.30;99.90;;;;;;8402107;28;20033;-80
2022/10/12 12:18:55;;;;;;;;;;;16.10;99.90;;;;;;8398078;28;19946;-81
2022/10/12 12:22:58;;;;;;;;;;;16.00;99.90;;;;;;8396600;28;19924;-80
2022/10/12 12:26:59;;;;;;;;;;;15.80;99.90;;;;;;8408992;28;19927;-80
2022/10/12 12:31:13;;;;;;;;;;;15.70;99.90;;;;;;8419596;27;19974;-80
2022/10/12 12:35:26;;;;;;;;;;;15.70;99.90;;;;;;8382740;28;20442;-80
2022/10/12 12:39:32;;;;;;;;;;;15.60;99.90;;;;;;8395945;28;20023;-80
2022/10/12 12:43:35;;;;;;;;;;;15.60;99.90;;;;;;8400568;28;19955;-80
2022/10/12 12:47:38;;;;;;;;;;;15.60;99.90;;;;;;8392657;28;19921;-80
2022/10/12 12:51:46;;;;;;;;;;;15.60;99.90;;;;;;8396498;28;19924;-80
2022/10/12 12:56:06;;;;;;;;;;;15.60;99.90;;;;;;8399135;28;19926;-81
2022/10/12 13:00:24;;;;;;;;;;;15.70;99.90;;;;;;8395207;28;19934;-80
2022/10/12 13:05:04;;;;;;;;;;;15.60;99.90;;;;;;8401698;28;19939;-80
2022/10/12 13:19:20;;;;;;;;;;;15.50;99.90;;;;;;8366615;28;20383;-80
2022/10/12 13:23:24;;;;;;;;;;;15.50;99.90;;;;;;8404343;28;19928;-80
2022/10/12 13:27:32;;;;;;;;;;;15.50;99.90;;;;;;8397321;28;19924;-80
2022/10/12 13:31:36;;;;;;;;;;;15.60;99.90;;;;;;8383694;28;19935;-80
2022/10/12 13:35:50;;;;;;;;;;;15.60;99.90;;;;;;8397220;28;20109;-81
2022/10/12 13:39:53;;;;;;;;;;;15.60;99.90;;;;;;8394705;28;19920;-81
2022/10/12 13:43:55;;;;;;;;;;;15.60;99.90;;;;;;8402050;28;19926;-79
2022/10/12 13:48:02;;;;;;;;;;;15.70;99.90;;;;;;8394169;28;20322;-80
2022/10/12 13:52:09;;;;;;;;;;;15.70;99.90;;;;;;8390195;28;19928;-80
2022/10/12 13:56:16;;;;;;;;;;;15.80;99.90;;;;;;8399110;28;19927;-80
2022/10/12 14:00:19;;;;;;;;;;;15.80;99.90;;;;;;8405426;28;19924;-80
2022/10/12 14:04:21;;;;;;;;;;;15.90;99.90;;;;;;8401581;28;19920;-80
2022/10/12 14:08:25;;;;;;;;;;;16.20;99.90;;;;;;8399505;28;20283;-81
2022/10/12 14:12:29;;;;;;;;;;;16.40;99.90;;;;;;8400941;28;20575;-80
2022/10/12 14:16:30;;;;;;;;;;;16.60;99.90;;;;;;8396511;28;20010;-79
2022/10/12 14:20:34;;;;;;;;;;;17.00;99.90;;;;;;8400019;28;19924;-79
2022/10/12 14:24:36;;;;;;;;;;;17.40;99.90;;;;;;8380120;28;19920;-80
2022/10/12 14:28:38;;;;;;;;;;;17.70;99.90;;;;;;8401177;28;20282;-81
2022/10/12 14:32:41;;;;;;;;;;;17.90;99.90;;;;;;8402193;28;19924;-80
2022/10/12 14:36:42;;;;;;;;;;;18.00;99.90;;;;;;8393928;28;20227;-80
2022/10/12 14:40:44;;;;;;;;;;;17.70;99.90;;;;;;8402254;28;19935;-80
2022/10/12 14:44:46;;;;;;;;;;;17.40;99.90;;;;;;8399473;28;19920;-81
2022/10/12 14:48:49;;;;;;;;;;;17.20;99.90;;;;;;8400584;28;19928;-80
2022/10/12 14:52:53;;;;;;;;;;;16.90;99.90;;;;;;8406018;28;19971;-81
2022/10/12 14:56:55;;;;;;;;;;;16.70;99.90;;;;;;8402779;28;19963;-81
2022/10/12 15:10:56;;;;;;;;;;;16.40;99.90;;;;;;8394810;28;19914;-81
2022/10/12 15:14:59;;;;;;;;;;;16.40;99.90;;;;;;8395819;28;20279;-81
2022/10/12 15:19:01;;;;;;;;;;;16.40;99.90;;;;;;8378262;28;19928;-81
2022/10/12 15:23:03;;;;;;;;;;;16.40;99.90;;;;;;8392205;28;19924;-80
2022/10/12 15:27:04;;;;;;;;;;;16.40;99.90;;;;;;8396804;28;20034;-81
2022/10/12 15:31:06;;;;;;;;;;;16.50;99.90;;;;;;8396666;28;19946;-81
2022/10/12 15:35:24;;;;;;;;;;;16.50;99.90;;;;;;8400295;28;20451;-80
2022/10/12 15:39:26;;;;;;;;;;;16.50;99.90;;;;;;8396290;28;19930;-81
2022/10/12 15:43:27;;;;;;;;;;;16.50;99.90;;;;;;8407772;28;19920;-79
2022/10/12 15:47:29;;;;;;;;;;;16.50;99.90;;;;;;8404960;28;20444;-80
2022/10/12 15:51:32;;;;;;;;;;;16.30;99.90;;;;;;8398624;28;19931;-81
2022/10/12 15:55:34;;;;;;;;;;;16.40;99.90;;;;;;8393232;28;19928;-80
2022/10/12 15:59:35;;;;;;;;;;;16.30;99.90;;;;;;8397705;28;19924;-80
2022/10/12 16:03:37;;;;;;;;;;;16.20;99.90;;;;;;8411065;27;19932;-80
2022/10/12 16:07:39;;;;;;;;;;;16.10;99.90;;;;;;8396073;28;20015;-80
2022/10/12 16:11:40;;;;;;;;;;;15.90;99.90;;;;;;8396178;28;20401;-80
2022/10/12 16:15:42;;;;;;;;;;;15.80;99.90;;;;;;8392303;28;20451;-80
2022/10/12 16:19:44;;;;;;;;;;;15.80;99.90;;;;;;8401710;28;20043;-80
2022/10/12 16:23:46;;;;;;;;;;;15.70;99.90;;;;;;8398029;28;20647;-80
2022/10/12 16:27:48;;;;;;;;;;;15.60;99.90;;;;;;8410409;27;19923;-80
2022/10/12 16:31:49;;;;;;;;;;;15.50;99.90;;;;;;8396225;28;19924;-80
2022/10/12 16:35:51;;;;;;;;;;;15.50;99.90;;;;;;8397888;28;19949;-80
2022/10/12 16:39:53;;;;;;;;;;;15.40;99.90;;;;;;8391767;28;19934;-80
2022/10/12 16:43:54;;;;;;;;;;;15.20;99.90;;;;;;8413365;27;19920;-80
2022/10/12 16:47:56;;;;;;;;;;;15.10;99.90;;;;;;8397039;28;19921;-81
2022/10/12 16:51:58;;;;;;;;;;;15.00;99.90;;;;;;8391671;28;19927;-81
2022/10/12 16:55:59;;;;;;;;;;;14.90;99.90;;;;;;8393522;28;19928;-80
2022/10/12 17:00:01;;;;;;;;;;;14.80;99.90;;;;;;8377923;28;20228;-80
2022/10/12 17:04:02;;;;;;;;;;;14.60;99.90;;;;;;8395846;28;20385;-80
2022/10/12 17:08:04;;;;;;;;;;;14.50;99.90;;;;;;8403578;28;20290;-79
2022/10/12 17:12:06;;;;;;;;;;;14.40;99.90;;;;;;8402849;28;19920;-79
2022/10/12 17:20:28;;;;;;;;;;;14.10;99.90;;;;;;8393533;28;19946;-80
2022/10/12 17:24:30;;;;;;;;;;;14.00;99.90;;;;;;8392866;28;20501;-80
2022/10/12 17:28:35;;;;;;;;;;;13.90;99.90;;;;;;8385159;28;20425;-80
2022/10/12 17:32:37;;;;;;;;;;;13.80;99.90;;;;;;8402797;28;19923;-80
2022/10/12 17:36:39;;;;;;;;;;;13.70;99.90;;;;;;8398199;28;19927;-80
2022/10/12 17:40:41;;;;;;;;;;;13.70;99.90;;;;;;8403234;28;19937;-80
2022/10/12 17:44:42;;;;;;;;;;;13.60;99.90;;;;;;8414766;27;20367;-79
2022/10/12 17:48:44;;;;;;;;;;;13.50;99.90;;;;;;8401080;28;19927;-80
2022/10/12 17:52:46;;;;;;;;;;;13.40;99.90;;;;;;8399513;28;20545;-80
2022/10/12 17:56:47;;;;;;;;;;;13.40;99.90;;;;;;8396833;28;20798;-80
2022/10/12 18:00:49;;;;;;;;;;;13.40;99.90;;;;;;8412601;27;19938;-80
2022/10/12 18:04:50;;;;;;;;;;;13.30;99.90;;;;;;8398034;28;19924;-80
2022/10/12 18:08:52;;;;;;;;;;;13.30;99.90;;;;;;8401332;28;20310;-80
2022/10/12 18:12:54;;;;;;;;;;;13.20;99.90;;;;;;8415118;27;19926;-80
2022/10/12 18:16:57;;;;;;;;;;;13.20;99.90;;;;;;8392830;28;19928;-80
2022/10/12 18:20:59;;;;;;;;;;;13.10;99.90;;;;;;8415730;27;19924;-79
2022/10/12 18:25:00;;;;;;;;;;;13.10;99.90;;;;;;8399850;28;20020;-80
2022/10/12 18:29:03;;;;;;;;;;;13.00;99.90;;;;;;8395125;28;20384;-80
2022/10/12 18:33:05;;;;;;;;;;;13.00;99.90;;;;;;8411103;28;20279;-80
2022/10/12 18:37:07;;;;;;;;;;;12.90;99.90;;;;;;8421187;27;20355;-80
2022/10/12 18:41:10;;;;;;;;;;;12.90;99.90;;;;;;8416533;28;20357;-80
2022/10/12 18:45:11;;;;;;;;;;;12.90;99.90;;;;;;8397150;28;20375;-80
2022/10/12 18:49:13;;;;;;;;;;;12.90;99.90;;;;;;8403832;28;20015;-80
2022/10/12 18:53:15;;;;;;;;;;;12.80;99.90;;;;;;8392850;28;19929;-80
2022/10/12 18:57:16;;;;;;;;;;;12.80;99.90;;;;;;8373461;28;19924;-80
2022/10/12 19:01:20;;;;;;;;;;;12.80;99.90;;;;;;8391512;28;19920;-80
2022/10/12 19:05:22;;;;;;;;;;;12.80;99.90;;;;;;8392292;28;19924;-79
2022/10/12 19:09:24;;;;;;;;;;;12.70;99.90;;;;;;8403000;28;19931;-79
2022/10/12 19:13:26;;;;;;;;;;;12.70;99.90;;;;;;8390291;28;20394;-79
2022/10/12 19:17:28;;;;;;;;;;;12.70;99.90;;;;;;8394219;28;19923;-80
2022/10/12 19:21:30;;;;;;;;;;;12.70;99.90;;;;;;8396892;28;19934;-80
2022/10/12 19:25:35;;;;;;;;;;;12.70;99.90;;;;;;8399567;28;22785;-79
2022/10/12 19:29:37;;;;;;;;;;;12.60;99.90;;;;;;8406828;28;19999;-79
2022/10/12 19:33:43;;;;;;;;;;;12.60;99.90;;;;;;8395491;28;19944;-80
2022/10/12 19:37:44;;;;;;;;;;;12.60;99.90;;;;;;8377847;28;19928;-80
2022/10/12 19:41:46;;;;;;;;;;;12.50;99.90;;;;;;8399940;28;19921;-80
2022/10/12 19:45:49;;;;;;;;;;;12.50;99.90;;;;;;8423777;28;19926;-80
2022/10/12 19:49:52;;;;;;;;;;;12.40;99.90;;;;;;8406330;28;19928;-80
2022/10/12 19:53:54;;;;;;;;;;;12.40;99.90;;;;;;8408509;28;19928;-80
2022/10/12 19:57:56;;;;;;;;;;;12.30;99.90;;;;;;8404241;28;19928;-80
2022/10/12 20:01:58;;;;;;;;;;;12.30;99.90;;;;;;8403065;28;19924;-80
2022/10/12 20:05:59;;;;;;;;;;;12.20;99.90;;;;;;8402679;28;19920;-80
2022/10/12 20:10:01;;;;;;;;;;;12.10;99.90;;;;;;8388960;28;19936;-80
2022/10/12 20:14:10;;;;;;;;;;;12.10;99.90;;;;;;8361730;28;19964;-80
2022/10/12 20:18:11;;;;;;;;;;;12.00;99.90;;;;;;8372340;28;20336;-80
2022/10/12 20:22:13;;;;;;;;;;;12.00;99.90;;;;;;8359696;28;20028;-80
2022/10/12 20:26:17;;;;;;;;;;;11.90;99.90;;;;;;8389575;28;19939;-80
2022/10/12 20:30:18;;;;;;;;;;;11.90;99.90;;;;;;8374900;28;19960;-80
2022/10/12 20:34:20;;;;;;;;;;;11.80;99.90;;;;;;8364971;28;19925;-80
2022/10/12 20:38:21;;;;;;;;;;;11.80;99.90;;;;;;8362533;28;19931;-80
2022/10/12 20:42:23;;;;;;;;;;;11.70;99.90;;;;;;8359310;28;19931;-80
2022/10/12 20:46:26;;;;;;;;;;;11.70;99.90;;;;;;8365919;28;19987;-80
2022/10/12 20:50:28;;;;;;;;;;;11.60;99.90;;;;;;8360873;28;19931;-80
2022/10/12 20:54:29;;;;;;;;;;;11.60;99.90;;;;;;8375759;28;20075;-80
2022/10/12 20:58:31;;;;;;;;;;;11.60;99.90;;;;;;8362719;28;20023;-80
2022/10/12 21:02:33;;;;;;;;;;;11.50;99.90;;;;;;8374552;28;19931;-80
2022/10/12 21:06:35;;;;;;;;;;;11.50;99.90;;;;;;8376002;28;20024;-80
2022/10/12 21:10:36;;;;;;;;;;;11.50;99.90;;;;;;8387765;28;19929;-80
2022/10/12 21:14:40;;;;;;;;;;;11.50;99.90;;;;;;8416304;28;19929;-80
2022/10/12 21:18:42;;;;;;;;;;;11.50;99.90;;;;;;8413337;28;19968;-80
2022/10/12 21:22:44;;;;;;;;;;;11.40;99.90;;;;;;8413308;28;20302;-80
2022/10/12 21:26:46;;;;;;;;;;;11.40;99.90;;;;;;8378152;28;19932;-81
2022/10/12 21:30:49;;;;;;;;;;;11.40;99.90;;;;;;8396321;28;20459;-80
2022/10/12 21:34:52;;;;;;;;;;;11.40;99.90;;;;;;8404680;28;20292;-80
2022/10/12 21:38:54;;;;;;;;;;;11.40;99.90;;;;;;8393244;28;19929;-80
2022/10/12 21:42:55;;;;;;;;;;;11.40;99.90;;;;;;8400284;28;19925;-80
2022/10/12 21:46:57;;;;;;;;;;;11.40;99.90;;;;;;8395353;28;19933;-80
2022/10/12 21:50:59;;;;;;;;;;;11.50;99.90;;;;;;8379912;28;19932;-80
2022/10/12 21:55:01;;;;;;;;;;;11.40;99.90;;;;;;8394652;28;20363;-81
2022/10/12 21:59:04;;;;;;;;;;;11.40;99.90;;;;;;8396393;28;20380;-80
2022/10/12 22:03:05;;;;;;;;;;;11.40;99.90;;;;;;8373737;28;19963;-80
2022/10/12 22:07:07;;;;;;;;;;;11.40;99.90;;;;;;8388838;28;19931;-79
2022/10/12 22:11:09;;;;;;;;;;;11.40;99.90;;;;;;8394908;28;20268;-80
2022/10/12 22:15:11;;;;;;;;;;;11.40;99.90;;;;;;8392122;28;19999;-80
2022/10/12 22:19:14;;;;;;;;;;;11.40;99.90;;;;;;8368695;28;19924;-80
2022/10/12 22:23:15;;;;;;;;;;;11.40;99.90;;;;;;8399036;28;20074;-80
2022/10/12 22:27:17;;;;;;;;;;;11.40;99.90;;;;;;8366038;28;19924;-80
2022/10/12 22:31:19;;;;;;;;;;;11.40;99.90;;;;;;8377471;28;19924;-80
2022/10/12 22:35:20;;;;;;;;;;;11.40;99.90;;;;;;8386884;28;19963;-80
2022/10/12 22:39:22;;;;;;;;;;;11.50;99.90;;;;;;8393791;28;20245;-80
2022/10/12 22:43:24;;;;;;;;;;;11.50;99.90;;;;;;8385593;28;19928;-80
2022/10/12 22:47:26;;;;;;;;;;;11.50;99.90;;;;;;8386804;28;19929;-80
2022/10/12 22:51:32;;;;;;;;;;;11.60;99.90;;;;;;8396153;28;20292;-79
2022/10/12 22:55:33;;;;;;;;;;;11.60;99.90;;;;;;8384916;28;19975;-81
2022/10/12 22:59:35;;;;;;;;;;;11.60;99.90;;;;;;8386608;28;19935;-81
2022/10/12 23:03:37;;;;;;;;;;;11.70;99.90;;;;;;8377147;28;19935;-80
2022/10/12 23:07:39;;;;;;;;;;;11.70;99.90;;;;;;8391232;28;19972;-80
2022/10/12 23:11:40;;;;;;;;;;;11.80;99.90;;;;;;8389809;28;19928;-80
2022/10/12 23:15:42;;;;;;;;;;;11.80;99.90;;;;;;8394589;28;19931;-80
2022/10/12 23:19:43;;;;;;;;;;;11.90;99.90;;;;;;8386917;28;19924;-80
2022/10/12 23:23:45;;;;;;;;;;;11.90;99.90;;;;;;8403471;28;19924;-80
2022/10/12 23:27:47;;;;;;;;;;;11.90;99.90;;;;;;8386920;28;19924;-80
2022/10/12 23:31:48;;;;;;;;;;;11.90;99.90;;;;;;8386493;28;20266;-80
2022/10/12 23:35:54;;;;;;;;;;;11.90;99.90;;;;;;8391965;28;19928;-80
2022/10/12 23:39:55;;;;;;;;;;;12.00;99.90;;;;;;8387900;28;19928;-80
2022/10/12 23:43:57;;;;;;;;;;;11.90;99.90;;;;;;8389721;28;20337;-80
2022/10/12 23:47:59;;;;;;;;;;;11.90;99.90;;;;;;8397839;28;20402;-80
2022/10/12 23:52:00;;;;;;;;;;;11.90;99.90;;;;;;8390211;28;19977;-80
2022/10/12 23:56:02;;;;;;;;;;;11.90;99.90;;;;;;8394387;28;19932;-80
